createdAt,value
2018-12-19T00:00:51.272Z,66.16
2018-12-19T00:03:18.709Z,66.56
2018-12-19T00:05:46.121Z,66.18
2018-12-19T00:08:13.571Z,65.49
2018-12-19T00:10:41.019Z,65.24
2018-12-19T00:13:08.441Z,66.10
2018-12-19T00:15:35.899Z,66.05
2018-12-19T00:18:03.315Z,64.96
2018-12-19T00:20:30.760Z,64.60
2018-12-19T00:22:58.544Z,64.46
2018-12-19T00:25:25.970Z,65.12
2018-12-19T00:27:53.430Z,64.33
2018-12-19T00:30:20.871Z,63.31
2018-12-19T00:32:48.519Z,64.25
2018-12-19T00:35:16.001Z,63.40
2018-12-19T00:37:43.454Z,63.76
2018-12-19T00:40:10.941Z,65.28
2018-12-19T00:42:38.453Z,63.71
2018-12-19T00:45:05.919Z,63.93
2018-12-19T00:47:33.355Z,64.45
2018-12-19T00:50:00.944Z,64.36
2018-12-19T00:52:30.609Z,63.87
2018-12-19T00:54:58.021Z,63.93
2018-12-19T00:57:25.431Z,63.97
2018-12-19T00:59:52.888Z,64.17
2018-12-19T01:02:20.915Z,64.51
2018-12-19T01:04:48.421Z,64.73
2018-12-19T01:07:15.810Z,65.02
2018-12-19T01:09:43.242Z,65.19
2018-12-19T01:12:10.658Z,65.56
2018-12-19T01:14:38.100Z,65.57
2018-12-19T01:17:05.538Z,65.63
2018-12-19T01:19:34.598Z,65.53
2018-12-19T01:22:02.092Z,66.39
2018-12-19T01:24:29.547Z,66.72
2018-12-19T01:26:56.994Z,66.21
2018-12-19T01:29:24.434Z,66.47
2018-12-19T01:31:51.873Z,66.75
2018-12-19T01:34:19.282Z,67.19
2018-12-19T01:36:46.722Z,66.73
2018-12-19T01:39:14.132Z,66.82
2018-12-19T01:41:43.356Z,66.67
2018-12-19T01:44:10.963Z,66.65
2018-12-19T01:46:38.397Z,67.06
2018-12-19T01:49:05.823Z,66.97
2018-12-19T01:51:33.280Z,67.25
2018-12-19T01:54:00.715Z,66.64
2018-12-19T01:56:28.163Z,67.75
2018-12-19T01:58:55.595Z,66.84
2018-12-19T02:01:23.045Z,67.12
2018-12-19T02:03:50.469Z,66.83
2018-12-19T02:06:17.897Z,66.22
2018-12-19T02:08:45.344Z,66.81
2018-12-19T02:11:12.777Z,66.98
2018-12-19T02:13:40.229Z,66.33
2018-12-19T02:16:08.528Z,66.36
2018-12-19T02:18:36.026Z,66.40
2018-12-19T02:21:03.430Z,66.94
2018-12-19T02:23:30.870Z,66.78
2018-12-19T02:25:58.279Z,66.74
2018-12-19T02:28:25.719Z,67.16
2018-12-19T02:30:53.160Z,66.87
2018-12-19T02:33:20.648Z,66.69
2018-12-19T02:35:48.094Z,66.99
2018-12-19T02:38:15.558Z,66.97
2018-12-19T02:40:42.988Z,67.00
2018-12-19T02:43:10.433Z,67.08
2018-12-19T02:45:37.867Z,66.78
2018-12-19T02:48:05.295Z,67.45
2018-12-19T02:50:32.766Z,67.42
2018-12-19T02:53:00.199Z,67.64
2018-12-19T02:55:27.645Z,67.65
2018-12-19T02:57:55.098Z,68.31
2018-12-19T03:00:22.553Z,68.14
2018-12-19T03:02:49.994Z,68.19
2018-12-19T03:05:17.459Z,67.67
2018-12-19T03:07:44.883Z,67.86
2018-12-19T03:10:12.331Z,68.17
2018-12-19T03:12:39.775Z,68.33
2018-12-19T03:15:08.113Z,68.75
2018-12-19T03:17:35.584Z,69.87
2018-12-19T03:20:02.988Z,70.08
2018-12-19T03:22:30.422Z,73.59
2018-12-19T03:24:57.841Z,72.35
2018-12-19T03:27:25.267Z,73.13
2018-12-19T03:29:52.676Z,76.46
2018-12-19T03:32:20.108Z,74.96
2018-12-19T03:34:47.543Z,75.68
2018-12-19T03:37:14.988Z,75.65
2018-12-19T03:39:42.417Z,75.17
2018-12-19T03:42:09.928Z,75.85
2018-12-19T03:44:37.351Z,75.71
2018-12-19T03:47:04.785Z,76.78
2018-12-19T03:49:32.266Z,76.86
2018-12-19T03:51:59.706Z,76.07
2018-12-19T03:54:27.119Z,76.70
2018-12-19T03:56:54.579Z,78.30
2018-12-19T03:59:21.993Z,77.81
2018-12-19T04:01:50.354Z,76.84
2018-12-19T04:04:17.857Z,77.06
2018-12-19T04:06:45.284Z,76.92
2018-12-19T04:09:12.719Z,76.26
2018-12-19T04:11:40.208Z,77.33
2018-12-19T04:14:07.620Z,77.71
2018-12-19T04:16:35.027Z,78.36
2018-12-19T04:19:02.477Z,77.56
2018-12-19T04:21:29.895Z,78.07
2018-12-19T04:23:58.312Z,77.25
2018-12-19T04:26:25.755Z,77.11
2018-12-19T04:28:53.203Z,77.00
2018-12-19T04:31:20.615Z,76.79
2018-12-19T04:33:48.058Z,76.70
2018-12-19T04:36:15.492Z,76.66
2018-12-19T04:38:42.928Z,77.40
2018-12-19T04:41:10.361Z,78.44
2018-12-19T04:43:37.808Z,77.53
2018-12-19T04:46:05.211Z,77.66
2018-12-19T04:48:32.676Z,78.59
2018-12-19T04:51:00.091Z,79.15
2018-12-19T04:53:27.535Z,78.91
2018-12-19T04:55:54.957Z,77.98
2018-12-19T04:58:22.385Z,78.53
2018-12-19T05:00:52.055Z,78.00
2018-12-19T05:03:19.593Z,78.41
2018-12-19T05:05:47.031Z,78.76
2018-12-19T05:08:14.490Z,78.96
2018-12-19T05:10:41.944Z,79.80
2018-12-19T05:13:09.376Z,79.56
2018-12-19T05:15:36.897Z,79.63
2018-12-19T05:18:04.338Z,80.41
2018-12-19T05:20:31.777Z,80.81
2018-12-19T05:23:00.746Z,80.70
2018-12-19T05:25:28.247Z,80.43
2018-12-19T05:27:55.672Z,80.39
2018-12-19T05:30:23.104Z,81.27
2018-12-19T05:32:50.525Z,81.90
2018-12-19T05:35:17.964Z,81.65
2018-12-19T05:37:45.372Z,81.79
2018-12-19T05:40:18.666Z,81.72
2018-12-19T05:42:40.288Z,82.89
2018-12-19T05:45:07.733Z,83.57
2018-12-19T05:47:35.158Z,82.96
2018-12-19T05:50:02.639Z,83.68
2018-12-19T05:52:30.047Z,83.59
2018-12-19T05:54:57.496Z,84.59
2018-12-19T05:57:24.982Z,84.19
2018-12-19T05:59:52.380Z,84.58
2018-12-19T06:02:19.822Z,85.04
2018-12-19T06:04:47.265Z,85.08
2018-12-19T06:07:14.693Z,85.26
2018-12-19T06:09:42.114Z,85.04
2018-12-19T06:12:09.551Z,85.47
2018-12-19T06:14:37.726Z,85.79
2018-12-19T06:17:04.755Z,87.31
2018-12-19T06:19:32.194Z,86.78
2018-12-19T06:21:59.648Z,86.06
2018-12-19T06:24:27.097Z,86.63
2018-12-19T06:26:54.522Z,86.54
2018-12-19T06:29:21.958Z,87.29
2018-12-19T06:31:49.377Z,87.56
2018-12-19T06:34:17.410Z,87.38
2018-12-19T06:36:44.857Z,87.57
2018-12-19T06:39:12.293Z,87.53
2018-12-19T06:41:39.737Z,89.32
2018-12-19T06:44:07.151Z,88.79
2018-12-19T06:46:34.585Z,88.63
2018-12-19T06:49:02.017Z,88.07
2018-12-19T06:51:29.448Z,88.75
2018-12-19T06:53:56.868Z,88.12
2018-12-19T06:56:24.315Z,88.14
2018-12-19T06:58:51.720Z,88.74
2018-12-19T07:01:19.187Z,88.65
2018-12-19T07:03:46.629Z,88.38
2018-12-19T07:06:14.075Z,88.51
2018-12-19T07:08:41.602Z,89.21
2018-12-19T07:11:08.945Z,89.79
2018-12-19T07:13:36.390Z,89.42
2018-12-19T07:16:03.829Z,89.34
2018-12-19T07:18:31.250Z,89.30
2018-12-19T07:20:58.662Z,89.16
2018-12-19T07:23:26.109Z,89.56
2018-12-19T07:25:53.557Z,89.32
2018-12-19T07:28:20.970Z,89.65
2018-12-19T07:30:48.400Z,89.58
2018-12-19T07:33:15.834Z,89.35
2018-12-19T07:35:43.276Z,89.45
2018-12-19T07:38:10.740Z,89.84
2018-12-19T07:40:45.368Z,89.27
2018-12-19T07:43:06.675Z,89.36
2018-12-19T07:45:34.121Z,89.05
2018-12-19T07:48:01.547Z,89.28
2018-12-19T07:50:29.001Z,89.03
2018-12-19T07:52:56.434Z,89.80
2018-12-19T07:55:23.867Z,89.18
2018-12-19T07:57:51.289Z,89.61
2018-12-19T08:00:18.737Z,89.44
2018-12-19T08:02:46.174Z,88.55
2018-12-19T08:05:13.595Z,88.28
2018-12-19T08:07:41.031Z,88.40
2018-12-19T08:10:08.457Z,87.89
2018-12-19T08:12:36.238Z,87.32
2018-12-19T08:15:03.349Z,87.06
2018-12-19T08:17:30.791Z,86.97
2018-12-19T08:19:58.209Z,86.47
2018-12-19T08:22:25.664Z,86.53
2018-12-19T08:24:53.085Z,86.00
2018-12-19T08:27:20.518Z,87.51
2018-12-19T08:29:47.949Z,87.96
2018-12-19T08:32:15.362Z,87.63
2018-12-19T08:34:42.838Z,86.67
2018-12-19T08:37:11.765Z,87.19
2018-12-19T08:39:39.259Z,87.57
2018-12-19T08:42:06.687Z,87.48
2018-12-19T08:44:34.108Z,86.80
2018-12-19T08:47:01.534Z,86.63
2018-12-19T08:49:28.966Z,86.12
2018-12-19T08:51:56.376Z,86.61
2018-12-19T08:54:23.824Z,86.52
2018-12-19T08:56:51.228Z,85.95
2018-12-19T08:59:18.674Z,87.09
2018-12-19T09:01:46.128Z,86.60
2018-12-19T09:04:13.553Z,87.24
2018-12-19T09:06:40.968Z,87.62
2018-12-19T09:09:08.414Z,87.05
2018-12-19T09:11:35.861Z,87.63
2018-12-19T09:14:03.277Z,87.38
2018-12-19T09:16:30.774Z,87.95
2018-12-19T09:18:58.212Z,88.71
2018-12-19T09:21:25.641Z,88.71
2018-12-19T09:23:53.077Z,89.14
2018-12-19T09:26:20.548Z,89.65
2018-12-19T09:28:47.987Z,89.43
2018-12-19T09:31:15.509Z,89.12
2018-12-19T09:33:42.937Z,89.02
2018-12-19T09:36:10.367Z,88.76
2018-12-19T09:38:37.804Z,89.02
2018-12-19T09:41:05.247Z,88.32
2018-12-19T09:43:32.696Z,87.76
2018-12-19T09:46:00.140Z,88.17
2018-12-19T09:48:27.559Z,88.20
2018-12-19T09:50:54.968Z,87.80
2018-12-19T09:53:22.417Z,87.90
2018-12-19T09:55:49.835Z,88.68
2018-12-19T09:58:17.300Z,88.17
2018-12-19T10:00:44.723Z,88.15
2018-12-19T10:03:12.140Z,88.21
2018-12-19T10:05:39.566Z,88.37
2018-12-19T10:08:06.991Z,87.82
2018-12-19T10:10:34.429Z,87.34
2018-12-19T10:13:01.838Z,86.93
2018-12-19T10:15:29.276Z,87.28
2018-12-19T10:17:56.729Z,86.94
2018-12-19T10:20:24.162Z,86.51
2018-12-19T10:22:51.577Z,86.39
2018-12-19T10:25:19.009Z,86.63
2018-12-19T10:27:46.552Z,86.21
2018-12-19T10:30:13.957Z,86.35
2018-12-19T10:32:41.465Z,85.47
2018-12-19T10:35:08.888Z,85.67
2018-12-19T10:37:36.307Z,86.30
2018-12-19T10:40:03.729Z,85.33
2018-12-19T10:42:31.165Z,84.93
2018-12-19T10:44:58.580Z,84.88
2018-12-19T10:47:25.996Z,84.73
2018-12-19T10:49:53.432Z,85.17
2018-12-19T10:52:20.842Z,84.52
2018-12-19T10:54:48.279Z,84.53
2018-12-19T10:57:15.696Z,84.30
2018-12-19T10:59:43.171Z,83.79
2018-12-19T11:02:11.457Z,83.93
2018-12-19T11:04:39.012Z,83.74
2018-12-19T11:07:06.449Z,83.05
2018-12-19T11:09:33.867Z,83.18
2018-12-19T11:12:01.303Z,82.81
2018-12-19T11:14:28.735Z,84.24
2018-12-19T11:16:56.621Z,83.32
2018-12-19T11:19:24.453Z,83.32
2018-12-19T11:21:52.419Z,83.33
2018-12-19T11:24:19.894Z,84.20
2018-12-19T11:26:47.324Z,83.93
2018-12-19T11:29:14.777Z,84.13
2018-12-19T11:31:42.193Z,83.84
2018-12-19T11:34:09.618Z,83.84
2018-12-19T11:36:37.065Z,84.08
2018-12-19T11:39:04.851Z,83.76
2018-12-19T11:41:38.797Z,83.58
2018-12-19T11:43:59.874Z,83.56
2018-12-19T11:46:27.321Z,83.84
2018-12-19T11:48:54.773Z,83.02
2018-12-19T11:51:22.202Z,83.18
2018-12-19T11:53:49.651Z,83.01
2018-12-19T11:56:17.094Z,82.58
2018-12-19T11:58:44.563Z,82.35
2018-12-19T12:01:12.528Z,83.02
2018-12-19T12:03:39.990Z,83.02
2018-12-19T12:06:07.440Z,82.64
2018-12-19T12:08:34.854Z,82.83
2018-12-19T12:11:02.340Z,82.72
2018-12-19T12:13:29.761Z,82.70
2018-12-19T12:15:57.199Z,82.69
2018-12-19T12:18:24.623Z,83.09
2018-12-19T12:20:52.098Z,82.99
2018-12-19T12:23:19.535Z,82.47
2018-12-19T12:25:46.993Z,82.37
2018-12-19T12:28:14.459Z,82.04
2018-12-19T12:30:41.875Z,81.89
2018-12-19T12:33:09.328Z,81.93
2018-12-19T12:35:36.748Z,81.55
2018-12-19T12:38:04.211Z,82.08
2018-12-19T12:40:31.618Z,82.23
2018-12-19T12:42:59.048Z,82.05
2018-12-19T12:45:26.470Z,81.69
2018-12-19T12:47:53.906Z,81.56
2018-12-19T12:50:21.341Z,81.32
2018-12-19T12:52:48.767Z,81.13
2018-12-19T12:55:16.203Z,80.93
2018-12-19T12:57:43.621Z,81.44
2018-12-19T13:00:11.040Z,81.50
2018-12-19T13:02:38.472Z,80.83
2018-12-19T13:05:05.914Z,80.94
2018-12-19T13:07:33.350Z,81.41
2018-12-19T13:10:00.769Z,80.81
2018-12-19T13:12:28.216Z,80.91
2018-12-19T13:14:55.653Z,80.28
2018-12-19T13:17:23.114Z,80.70
2018-12-19T13:19:50.535Z,80.32
2018-12-19T13:22:17.972Z,80.36
2018-12-19T13:24:45.395Z,80.36
2018-12-19T13:27:12.818Z,80.60
2018-12-19T13:29:40.256Z,80.87
2018-12-19T13:32:07.691Z,80.51
2018-12-19T13:34:35.135Z,80.13
2018-12-19T13:37:02.598Z,80.21
2018-12-19T13:39:30.005Z,79.96
2018-12-19T13:41:57.431Z,80.12
2018-12-19T13:44:24.858Z,80.18
2018-12-19T13:46:52.313Z,80.72
2018-12-19T13:49:19.723Z,79.99
2018-12-19T13:51:47.162Z,80.11
2018-12-19T13:54:14.649Z,80.00
2018-12-19T13:56:42.075Z,79.84
2018-12-19T13:59:09.520Z,80.14
2018-12-19T14:01:36.945Z,80.16
2018-12-19T14:04:04.367Z,80.16
2018-12-19T14:06:31.794Z,80.25
2018-12-19T14:08:59.245Z,80.24
2018-12-19T14:11:26.651Z,80.59
2018-12-19T14:13:54.083Z,80.46
2018-12-19T14:16:21.531Z,79.71
2018-12-19T14:18:48.962Z,79.55
2018-12-19T14:21:16.410Z,79.46
2018-12-19T14:23:43.845Z,79.31
2018-12-19T14:26:11.302Z,79.06
2018-12-19T14:28:38.717Z,79.03
2018-12-19T14:31:06.130Z,79.17
2018-12-19T14:33:33.562Z,79.01
2018-12-19T14:36:00.997Z,78.98
2018-12-19T14:38:28.453Z,79.67
2018-12-19T14:40:55.890Z,79.29
2018-12-19T14:43:23.331Z,78.98
2018-12-19T14:45:50.770Z,79.09
2018-12-19T14:48:18.184Z,78.84
2018-12-19T14:50:45.637Z,78.73
2018-12-19T14:53:13.080Z,78.66
2018-12-19T14:55:40.504Z,78.90
2018-12-19T14:58:07.949Z,79.00
2018-12-19T15:00:35.382Z,78.92
2018-12-19T15:03:02.920Z,78.60
2018-12-19T15:05:30.416Z,78.33
2018-12-19T15:07:57.894Z,78.27
2018-12-19T15:10:25.365Z,78.24
2018-12-19T15:12:53.625Z,78.32
2018-12-19T15:15:21.194Z,78.03
2018-12-19T15:17:48.641Z,77.79
2018-12-19T15:20:16.097Z,77.98
2018-12-19T15:22:43.544Z,77.96
2018-12-19T15:25:10.957Z,77.63
2018-12-19T15:27:38.384Z,77.85
2018-12-19T15:30:05.867Z,77.71
2018-12-19T15:32:33.289Z,77.61
2018-12-19T15:35:01.902Z,77.85
2018-12-19T15:37:29.350Z,77.71
2018-12-19T15:39:56.876Z,77.48
2018-12-19T15:42:24.336Z,77.90
2018-12-19T15:44:51.765Z,77.35
2018-12-19T15:47:19.204Z,77.24
2018-12-19T15:49:46.617Z,77.41
2018-12-19T15:52:14.059Z,77.21
2018-12-19T15:54:41.467Z,77.55
2018-12-19T15:57:08.903Z,77.76
2018-12-19T15:59:36.331Z,77.70
2018-12-19T16:02:03.817Z,77.42
2018-12-19T16:04:31.235Z,77.35
2018-12-19T16:06:58.662Z,77.58
2018-12-19T16:09:26.098Z,78.05
2018-12-19T16:11:53.525Z,77.77
2018-12-19T16:14:20.954Z,77.93
2018-12-19T16:16:48.381Z,78.96
2018-12-19T16:19:15.818Z,78.52
2018-12-19T16:21:43.242Z,78.39
2018-12-19T16:24:11.114Z,78.88
2018-12-19T16:26:38.518Z,79.80
2018-12-19T16:29:05.950Z,79.21
2018-12-19T16:31:33.384Z,79.26
2018-12-19T16:34:00.819Z,79.36
2018-12-19T16:36:28.254Z,79.69
2018-12-19T16:38:55.681Z,79.55
2018-12-19T16:41:23.120Z,80.54
2018-12-19T16:43:50.546Z,80.24
2018-12-19T16:46:17.981Z,80.33
2018-12-19T16:48:45.410Z,80.07
2018-12-19T16:51:12.871Z,80.47
2018-12-19T16:53:40.284Z,80.51
2018-12-19T16:56:07.721Z,81.05
2018-12-19T16:58:35.155Z,82.46
2018-12-19T17:01:02.596Z,82.23
2018-12-19T17:03:30.033Z,82.52
2018-12-19T17:05:57.475Z,82.48
2018-12-19T17:08:24.887Z,83.85
2018-12-19T17:10:52.323Z,83.84
2018-12-19T17:13:19.726Z,84.79
2018-12-19T17:15:47.140Z,83.50
2018-12-19T17:18:14.577Z,84.64
2018-12-19T17:20:42.004Z,84.01
2018-12-19T17:23:09.470Z,84.04
2018-12-19T17:25:36.909Z,84.28
2018-12-19T17:28:04.451Z,84.01
2018-12-19T17:30:31.878Z,84.15
2018-12-19T17:32:59.304Z,84.71
2018-12-19T17:35:26.745Z,83.74
2018-12-19T17:37:54.469Z,83.31
2018-12-19T17:40:21.962Z,83.44
2018-12-19T17:42:49.386Z,82.80
2018-12-19T17:45:16.840Z,82.40
2018-12-19T17:47:44.281Z,82.21
2018-12-19T17:50:11.733Z,82.35
2018-12-19T17:52:39.143Z,83.94
2018-12-19T17:55:06.601Z,82.76
2018-12-19T17:57:34.030Z,82.34
2018-12-19T18:00:01.473Z,82.50
2018-12-19T18:02:28.886Z,82.62
2018-12-19T18:04:56.332Z,83.99
2018-12-19T18:07:23.774Z,82.82
2018-12-19T18:09:51.192Z,83.16
2018-12-19T18:12:19.321Z,82.46
2018-12-19T18:14:46.748Z,82.46
2018-12-19T18:17:14.197Z,82.14
2018-12-19T18:19:41.603Z,82.68
2018-12-19T18:22:09.040Z,82.27
2018-12-19T18:24:36.435Z,82.25
2018-12-19T18:27:03.870Z,81.81
2018-12-19T18:29:31.386Z,82.41
2018-12-19T18:31:58.918Z,82.23
2018-12-19T18:34:26.347Z,81.79
2018-12-19T18:36:53.780Z,81.70
2018-12-19T18:39:26.177Z,81.60
2018-12-19T18:41:48.665Z,81.37
2018-12-19T18:44:16.119Z,81.21
2018-12-19T18:46:43.609Z,80.98
2018-12-19T18:49:11.123Z,81.44
2018-12-19T18:51:38.541Z,81.40
2018-12-19T18:54:05.995Z,81.63
2018-12-19T18:56:33.401Z,81.42
2018-12-19T18:59:02.131Z,81.10
2018-12-19T19:01:29.651Z,80.89
2018-12-19T19:03:57.115Z,81.32
2018-12-19T19:06:24.516Z,80.82
2018-12-19T19:08:52.013Z,81.01
2018-12-19T19:11:19.453Z,82.65
2018-12-19T19:13:46.900Z,81.66
2018-12-19T19:16:14.315Z,81.60
2018-12-19T19:18:41.725Z,81.31
2018-12-19T19:21:09.166Z,81.37
2018-12-19T19:23:36.582Z,81.38
2018-12-19T19:26:05.057Z,81.55
2018-12-19T19:28:32.485Z,81.13
2018-12-19T19:30:59.914Z,81.14
2018-12-19T19:33:27.325Z,81.26
2018-12-19T19:35:54.743Z,81.18
2018-12-19T19:38:22.156Z,80.93
2018-12-19T19:40:49.593Z,81.01
2018-12-19T19:43:17.074Z,81.06
2018-12-19T19:45:44.511Z,81.31
2018-12-19T19:48:11.918Z,80.89
2018-12-19T19:50:39.363Z,81.38
2018-12-19T19:53:06.990Z,81.03
2018-12-19T19:55:34.411Z,80.99
2018-12-19T19:58:01.859Z,81.46
2018-12-19T20:00:29.289Z,81.41
2018-12-19T20:02:56.818Z,81.12
2018-12-19T20:05:24.278Z,82.51
2018-12-19T20:07:51.715Z,81.64
2018-12-19T20:10:19.142Z,81.27
2018-12-19T20:12:46.589Z,81.69
2018-12-19T20:15:14.009Z,81.34
2018-12-19T20:17:41.439Z,80.99
2018-12-19T20:20:08.877Z,80.98
2018-12-19T20:22:36.344Z,80.64
2018-12-19T20:25:04.747Z,81.47
2018-12-19T20:27:32.254Z,80.87
2018-12-19T20:29:59.681Z,81.22
2018-12-19T20:32:27.146Z,80.94
2018-12-19T20:34:55.238Z,80.68
2018-12-19T20:37:22.731Z,80.84
2018-12-19T20:39:50.153Z,80.34
2018-12-19T20:42:17.597Z,81.04
2018-12-19T20:44:45.012Z,80.56
2018-12-19T20:47:13.484Z,80.13
2018-12-19T20:49:41.055Z,79.83
2018-12-19T20:52:08.465Z,80.00
2018-12-19T20:54:35.914Z,80.07
2018-12-19T20:57:03.345Z,80.57
2018-12-19T20:59:30.798Z,81.01
2018-12-19T21:01:58.232Z,80.91
2018-12-19T21:04:25.756Z,80.85
2018-12-19T21:06:53.386Z,81.34
2018-12-19T21:09:21.261Z,80.68
2018-12-19T21:11:49.750Z,80.96
2018-12-19T21:14:17.275Z,80.94
2018-12-19T21:16:50.330Z,80.83
2018-12-19T21:19:17.828Z,81.01
2018-12-19T21:21:46.047Z,81.48
2018-12-19T21:24:14.375Z,81.04
2018-12-19T21:26:42.709Z,81.81
2018-12-19T21:29:10.669Z,81.74
2018-12-19T21:31:38.870Z,82.00
2018-12-19T21:34:07.187Z,82.17
2018-12-19T21:36:35.367Z,81.89
2018-12-19T21:39:03.930Z,81.38
2018-12-19T21:41:32.156Z,80.97
2018-12-19T21:44:00.460Z,81.79
2018-12-19T21:46:29.385Z,81.07
2018-12-19T21:48:57.433Z,81.73
2018-12-19T21:51:25.278Z,82.28
2018-12-19T21:53:53.249Z,82.60
2018-12-19T21:56:21.884Z,82.15
2018-12-19T21:58:49.839Z,81.67
2018-12-19T22:01:17.922Z,82.31
2018-12-19T22:03:46.019Z,81.85
2018-12-19T22:06:14.403Z,81.23
2018-12-19T22:08:42.571Z,81.42
2018-12-19T22:11:11.734Z,81.39
2018-12-19T22:13:39.863Z,81.63
2018-12-19T22:16:08.062Z,81.91
2018-12-19T22:18:41.745Z,82.27
2018-12-19T22:21:09.953Z,82.36
2018-12-19T22:23:38.763Z,82.85
2018-12-19T22:26:07.073Z,81.99
2018-12-19T22:28:35.819Z,82.79
2018-12-19T22:31:04.208Z,82.99
2018-12-19T22:33:32.225Z,83.47
2018-12-19T22:36:00.670Z,83.51
2018-12-19T22:38:29.037Z,82.91
2018-12-19T22:40:57.342Z,83.49
2018-12-19T22:43:25.618Z,83.65
2018-12-19T22:45:53.779Z,83.70
2018-12-19T22:48:21.392Z,82.94
2018-12-19T22:50:49.605Z,82.62
2018-12-19T22:53:18.020Z,82.19
2018-12-19T22:55:46.241Z,82.58
2018-12-19T22:58:13.814Z,82.42
2018-12-19T23:00:56.368Z,82.57
2018-12-19T23:03:25.363Z,82.53
2018-12-19T23:05:53.666Z,82.66
2018-12-19T23:08:21.363Z,83.26
2018-12-19T23:10:49.760Z,82.73
2018-12-19T23:13:18.459Z,82.50
2018-12-19T23:15:46.195Z,82.91
2018-12-19T23:18:19.226Z,83.16
2018-12-19T23:20:46.602Z,82.53
2018-12-19T23:23:14.463Z,81.73
2018-12-19T23:25:42.987Z,82.68
2018-12-19T23:28:10.602Z,82.03
2018-12-19T23:30:40.545Z,81.49
2018-12-19T23:33:08.878Z,81.47
2018-12-19T23:35:37.017Z,81.42
2018-12-19T23:38:05.205Z,82.04
2018-12-19T23:40:33.735Z,81.74
2018-12-19T23:43:02.058Z,81.64
2018-12-19T23:45:29.732Z,81.50
2018-12-19T23:47:57.512Z,81.56
2018-12-19T23:50:25.017Z,81.29
2018-12-19T23:52:53.343Z,81.11
2018-12-19T23:55:20.956Z,81.10
2018-12-19T23:57:48.451Z,81.63
